createdAt,value
2019-04-10T00:03:32.814Z,78.48
2019-04-10T00:08:32.499Z,79.25
2019-04-10T00:13:37.056Z,80.62
2019-04-10T00:18:43.026Z,80.06
2019-04-10T00:23:47.388Z,80.10
2019-04-10T00:28:51.997Z,79.23
2019-04-10T00:33:56.973Z,79.91
2019-04-10T00:39:02.291Z,78.03
2019-04-10T00:44:08.403Z,80.62
2019-04-10T00:49:13.489Z,80.31
2019-04-10T00:54:18.165Z,78.95
2019-04-10T00:59:22.610Z,79.74
2019-04-10T01:04:27.021Z,79.45
2019-04-10T01:09:31.531Z,79.02
2019-04-10T01:14:35.985Z,76.95
2019-04-10T01:19:41.799Z,78.32
2019-04-10T01:24:46.277Z,79.67
2019-04-10T01:29:51.557Z,80.18
2019-04-10T01:34:56.002Z,79.33
2019-04-10T01:40:00.350Z,81.07
2019-04-10T01:45:06.256Z,79.14
2019-04-10T01:50:12.434Z,80.82
2019-04-10T01:55:24.273Z,80.28
2019-04-10T02:00:25.683Z,81.19
2019-04-10T02:05:30.340Z,79.57
2019-04-10T02:10:34.686Z,80.14
2019-04-10T02:15:39.067Z,80.27
2019-04-10T02:20:43.424Z,80.25
2019-04-10T02:25:47.813Z,78.46
2019-04-10T02:30:52.181Z,79.75
2019-04-10T02:35:57.143Z,79.97
2019-04-10T02:41:01.802Z,80.44
2019-04-10T02:46:08.206Z,80.39
2019-04-10T02:51:13.786Z,79.35
2019-04-10T02:56:20.700Z,79.44
2019-04-10T03:01:25.327Z,78.97
2019-04-10T03:06:30.994Z,79.43
2019-04-10T03:11:36.515Z,79.37
2019-04-10T03:16:41.743Z,79.08
2019-04-10T03:21:47.093Z,78.45
2019-04-10T03:26:52.154Z,77.49
2019-04-10T03:31:59.546Z,79.13
2019-04-10T03:37:04.403Z,77.97
2019-04-10T03:42:08.844Z,76.93
2019-04-10T03:47:13.352Z,78.68
2019-04-10T03:52:18.682Z,78.34
2019-04-10T03:57:23.394Z,78.98
2019-04-10T04:02:27.799Z,79.82
2019-04-10T04:07:32.621Z,79.43
2019-04-10T04:12:37.146Z,79.90
2019-04-10T04:17:41.556Z,81.71
2019-04-10T04:22:47.464Z,81.62
2019-04-10T04:27:51.968Z,82.67
2019-04-10T04:32:56.328Z,81.81
2019-04-10T04:38:00.689Z,81.58
2019-04-10T04:43:05.648Z,81.76
2019-04-10T04:48:10.252Z,81.75
2019-04-10T04:53:14.635Z,81.63
2019-04-10T04:58:20.193Z,80.47
2019-04-10T05:03:25.675Z,79.01
2019-04-10T05:08:30.295Z,77.87
2019-04-10T05:13:34.902Z,76.58
2019-04-10T05:18:39.307Z,75.40
2019-04-10T05:23:43.835Z,76.02
2019-04-10T05:28:48.632Z,74.30
2019-04-10T05:33:53.292Z,71.52
2019-04-10T05:38:57.850Z,72.04
2019-04-10T05:44:02.778Z,72.12
2019-04-10T05:49:07.270Z,70.98
2019-04-10T05:54:12.771Z,69.12
2019-04-10T05:59:17.171Z,69.79
2019-04-10T06:04:21.635Z,67.97
2019-04-10T06:09:26.870Z,66.44
2019-04-10T06:14:32.395Z,65.92
2019-04-10T06:19:36.900Z,63.96
2019-04-10T06:24:42.465Z,64.71
2019-04-10T06:29:48.384Z,63.90
2019-04-10T06:34:52.858Z,65.54
2019-04-10T06:40:08.028Z,64.79
2019-04-10T06:45:05.696Z,64.99
2019-04-10T06:50:10.654Z,63.07
2019-04-10T06:55:15.413Z,61.43
2019-04-10T07:00:21.285Z,63.29
2019-04-10T07:05:37.031Z,61.11
2019-04-10T07:10:43.735Z,62.32
2019-04-10T07:15:40.940Z,57.56
2019-04-10T07:20:46.167Z,58.25
2019-04-10T07:25:51.999Z,58.13
2019-04-10T07:31:00.250Z,55.68
2019-04-10T07:36:06.729Z,54.43
2019-04-10T07:41:14.331Z,54.33
2019-04-10T07:46:15.527Z,53.54
2019-04-10T07:51:21.066Z,51.06
2019-04-10T07:56:26.675Z,52.03
2019-04-10T08:01:31.242Z,52.75
2019-04-10T08:06:37.395Z,54.28
2019-04-10T08:11:42.506Z,53.09
2019-04-10T08:16:47.935Z,54.12
2019-04-10T08:21:52.776Z,52.60
2019-04-10T08:26:57.213Z,52.68
2019-04-10T08:32:01.607Z,52.47
2019-04-10T08:37:06.054Z,51.98
2019-04-10T08:42:10.709Z,54.16
2019-04-10T08:47:15.329Z,52.30
2019-04-10T08:52:19.949Z,52.80
2019-04-10T08:57:24.361Z,52.72
2019-04-10T09:02:28.739Z,50.52
2019-04-10T09:07:33.157Z,50.66
2019-04-10T09:12:37.529Z,52.83
2019-04-10T09:17:41.895Z,51.78
2019-04-10T09:23:10.628Z,51.55
2019-04-10T09:27:52.320Z,50.07
2019-04-10T09:32:57.062Z,50.55
2019-04-10T09:38:02.252Z,50.38
2019-04-10T09:43:07.346Z,50.12
2019-04-10T09:48:12.807Z,49.32
2019-04-10T09:53:17.201Z,49.78
2019-04-10T09:58:21.941Z,48.04
2019-04-10T10:03:26.383Z,48.60
2019-04-10T10:08:31.641Z,49.11
2019-04-10T10:13:37.267Z,48.19
2019-04-10T10:18:41.750Z,47.29
2019-04-10T10:23:46.473Z,48.41
2019-04-10T10:28:51.006Z,47.57
2019-04-10T10:33:56.458Z,47.27
2019-04-10T10:39:06.934Z,46.62
2019-04-10T10:44:08.992Z,47.49
2019-04-10T10:49:13.437Z,45.96
2019-04-10T10:54:18.917Z,45.73
2019-04-10T10:59:23.410Z,46.19
2019-04-10T11:04:27.844Z,45.74
2019-04-10T11:09:32.399Z,46.73
2019-04-10T11:14:39.503Z,45.74
2019-04-10T11:19:45.555Z,46.69
2019-04-10T11:24:51.172Z,46.80
2019-04-10T11:29:55.698Z,45.61
2019-04-10T11:35:00.047Z,46.19
2019-04-10T11:40:06.395Z,46.22
2019-04-10T11:45:11.472Z,46.19
2019-04-10T11:50:18.689Z,45.39
2019-04-10T11:55:27.076Z,45.21
2019-04-10T12:00:45.322Z,44.59
2019-04-10T12:05:46.194Z,44.90
2019-04-10T12:11:05.195Z,44.05
2019-04-10T12:15:56.700Z,44.72
2019-04-10T12:21:01.893Z,44.72
2019-04-10T12:26:07.541Z,44.75
2019-04-10T12:31:12.094Z,45.18
2019-04-10T12:36:18.301Z,44.68
2019-04-10T12:41:23.495Z,45.10
2019-04-10T12:46:28.912Z,45.49
2019-04-10T12:51:34.797Z,44.60
2019-04-10T12:56:40.167Z,44.74
2019-04-10T13:01:44.897Z,43.43
2019-04-10T13:06:52.328Z,42.87
2019-04-10T13:11:56.521Z,43.45
2019-04-10T13:17:01.253Z,43.44
2019-04-10T13:22:05.664Z,43.64
2019-04-10T13:27:10.419Z,42.95
2019-04-10T13:32:16.738Z,42.88
2019-04-10T13:37:21.020Z,42.84
2019-04-10T13:42:25.710Z,42.52
2019-04-10T13:47:30.499Z,42.60
2019-04-10T13:52:36.671Z,42.08
2019-04-10T13:57:41.030Z,41.68
2019-04-10T14:02:45.831Z,42.88
2019-04-10T14:07:51.275Z,42.27
2019-04-10T14:12:57.711Z,41.57
2019-04-10T14:18:02.017Z,42.13
2019-04-10T14:23:23.422Z,41.59
2019-04-10T14:28:29.409Z,42.20
2019-04-10T14:33:33.836Z,41.58
2019-04-10T14:38:39.073Z,41.31
2019-04-10T14:43:45.378Z,41.62
2019-04-10T14:48:50.658Z,41.89
2019-04-10T14:53:55.378Z,41.17
2019-04-10T14:59:01.021Z,42.01
2019-04-10T15:04:06.018Z,41.52
2019-04-10T15:09:24.032Z,41.92
2019-04-10T15:14:25.723Z,42.53
2019-04-10T15:19:32.289Z,42.33
2019-04-10T15:24:36.835Z,41.25
2019-04-10T15:29:41.212Z,41.75
2019-04-10T15:34:46.027Z,41.72
2019-04-10T15:39:50.462Z,42.00
2019-04-10T15:44:54.854Z,41.70
2019-04-10T15:49:59.884Z,42.06
2019-04-10T15:55:05.688Z,42.48
2019-04-10T16:00:10.777Z,41.73
2019-04-10T16:05:15.471Z,41.92
2019-04-10T16:10:33.559Z,42.47
2019-04-10T16:15:42.881Z,43.09
2019-04-10T16:20:49.049Z,41.24
2019-04-10T16:25:54.573Z,41.22
2019-04-10T16:30:59.282Z,42.12
2019-04-10T16:36:05.162Z,42.47
2019-04-10T16:41:10.854Z,41.26
2019-04-10T16:46:15.407Z,41.30
2019-04-10T16:51:20.768Z,41.13
2019-04-10T16:56:25.516Z,42.04
2019-04-10T17:01:30.954Z,42.83
2019-04-10T17:06:36.526Z,43.40
2019-04-10T17:11:42.162Z,44.00
2019-04-10T17:16:46.521Z,43.87
2019-04-10T17:21:52.107Z,43.44
2019-04-10T17:26:57.316Z,43.65
2019-04-10T17:32:02.677Z,43.89
2019-04-10T17:37:07.573Z,44.87
2019-04-10T17:42:14.530Z,45.89
2019-04-10T17:47:18.906Z,45.21
2019-04-10T17:52:23.336Z,46.53
2019-04-10T17:57:36.259Z,46.39
2019-04-10T18:02:34.750Z,46.78
2019-04-10T18:07:40.563Z,46.83
2019-04-10T18:12:46.087Z,47.51
2019-04-10T18:17:51.594Z,47.35
2019-04-10T18:22:56.038Z,48.28
2019-04-10T18:28:01.174Z,48.78
2019-04-10T18:33:07.227Z,48.42
2019-04-10T18:38:11.594Z,48.80
2019-04-10T18:43:16.107Z,50.15
2019-04-10T18:48:20.800Z,51.03
2019-04-10T18:53:25.247Z,50.91
2019-04-10T18:58:31.707Z,51.62
2019-04-10T19:03:47.979Z,49.94
2019-04-10T19:08:46.132Z,50.16
2019-04-10T19:13:50.984Z,51.54
2019-04-10T19:18:56.775Z,51.84
2019-04-10T19:24:01.581Z,52.16
2019-04-10T19:29:07.427Z,51.27
2019-04-10T19:34:12.805Z,51.58
2019-04-10T19:39:18.179Z,52.15
2019-04-10T19:44:23.209Z,52.12
2019-04-10T19:49:28.182Z,53.23
2019-04-10T19:54:33.243Z,55.50
2019-04-10T19:59:37.769Z,54.41
2019-04-10T20:04:43.277Z,55.05
2019-04-10T20:09:48.574Z,55.53
2019-04-10T20:14:53.368Z,55.95
2019-04-10T20:19:58.697Z,56.34
2019-04-10T20:25:04.184Z,56.25
2019-04-10T20:30:09.956Z,55.04
2019-04-10T20:35:16.320Z,54.34
2019-04-10T20:40:22.305Z,54.02
2019-04-10T20:45:26.853Z,53.57
2019-04-10T20:50:32.124Z,53.58
2019-04-10T20:55:37.694Z,53.60
2019-04-10T21:00:43.071Z,53.18
2019-04-10T21:05:48.714Z,53.24
2019-04-10T21:10:53.093Z,52.94
2019-04-10T21:15:58.356Z,53.46
2019-04-10T21:21:02.917Z,53.45
2019-04-10T21:26:08.679Z,53.67
2019-04-10T21:31:23.705Z,53.83
2019-04-10T21:36:28.362Z,53.20
2019-04-10T21:41:32.803Z,52.88
2019-04-10T21:46:37.194Z,53.06
2019-04-10T21:51:42.744Z,55.04
2019-04-10T21:56:47.298Z,53.97
2019-04-10T22:01:52.896Z,53.87
2019-04-10T22:07:01.662Z,54.64
2019-04-10T22:12:25.005Z,55.04
2019-04-10T22:17:20.397Z,55.29
2019-04-10T22:22:24.763Z,55.39
2019-04-10T22:27:29.602Z,55.28
2019-04-10T22:32:35.232Z,55.82
2019-04-10T22:37:40.007Z,55.53
2019-04-10T22:42:47.027Z,56.44
2019-04-10T22:47:50.625Z,56.33
2019-04-10T22:52:56.997Z,59.87
2019-04-10T22:58:02.530Z,58.11
2019-04-10T23:03:07.224Z,57.04
2019-04-10T23:08:11.667Z,56.03
2019-04-10T23:13:16.137Z,58.35
2019-04-10T23:18:21.377Z,55.92
2019-04-10T23:23:25.893Z,56.86
2019-04-10T23:28:30.232Z,56.86
2019-04-10T23:33:34.655Z,55.59
2019-04-10T23:38:39.593Z,56.09
2019-04-10T23:43:44.066Z,56.55
2019-04-10T23:48:48.927Z,57.05
2019-04-10T23:53:53.374Z,56.75
2019-04-10T23:58:58.272Z,57.00
